Time;durP1;ratioP1;P1;durP2;ratioP2;P2;SDS_P1;SDS_P2;PMS_P1;PMS_P2;Temp;Humidity;BMP_temperature;BMP_pressure;BME280_temperature;BME280_humidity;BME280_pressure;Samples;Min_cycle;Max_cycle;Signal;HPM_P1;HPM_P2
2023/04/04 00:01:50;;;;;;;0.20;0.20;;;;;;;10.01;49.98;99063.72;5078996;28;20028;-65
2023/04/04 00:04:16;;;;;;;0.20;0.20;;;;;;;10.00;49.93;99058.56;5077948;28;20070;-63
2023/04/04 00:06:46;;;;;;;0.30;0.30;;;;;;;9.97;50.00;99052.59;5077706;28;20039;-62
2023/04/04 00:09:14;;;;;;;0.20;0.20;;;;;;;9.97;49.87;99062.91;5077211;28;20044;-65
2023/04/04 00:11:41;;;;;;;0.20;0.20;;;;;;;9.85;50.58;99064.00;5078089;28;20050;-63
2023/04/04 00:14:06;;;;;;;0.28;0.28;;;;;;;9.80;50.23;99067.16;5077805;28;20063;-64
2023/04/04 00:16:35;;;;;;;0.30;0.30;;;;;;;9.86;49.57;99068.41;5094886;28;20467;-62
2023/04/04 00:19:03;;;;;;;0.20;0.20;;;;;;;9.73;49.19;99036.53;5077546;28;20128;-62
2023/04/04 00:21:29;;;;;;;0.20;0.20;;;;;;;9.82;49.78;99056.44;5094759;28;20110;-65
2023/04/04 00:23:55;;;;;;;0.20;0.20;;;;;;;9.84;49.73;99056.84;5094435;28;20089;-64
2023/04/04 00:26:22;;;;;;;0.20;0.20;;;;;;;9.85;48.95;99061.22;5094416;28;20031;-66
2023/04/04 00:28:47;;;;;;;0.20;0.20;;;;;;;9.83;48.81;99052.47;5094044;28;20067;-63
2023/04/04 00:31:16;;;;;;;0.20;0.20;;;;;;;9.88;49.23;99054.91;5077767;28;20020;-63
2023/04/04 00:33:42;;;;;;;0.20;0.20;;;;;;;9.82;49.30;99056.44;5077385;28;20024;-64
2023/04/04 00:36:10;;;;;;;0.20;0.20;;;;;;;9.82;48.87;99064.78;5077694;28;20367;-64
2023/04/04 00:38:38;;;;;;;0.28;0.28;;;;;;;9.84;48.62;99065.19;5094020;28;20050;-61
2023/04/04 00:41:06;;;;;;;0.28;0.28;;;;;;;9.82;48.73;99056.44;5077117;28;20413;-64
2023/04/04 00:43:32;;;;;;;0.30;0.30;;;;;;;9.84;49.00;99065.19;5061040;28;20039;-64
2023/04/04 00:45:58;;;;;;;0.20;0.20;;;;;;;9.79;48.49;99070.31;5093751;28;20039;-63
2023/04/04 00:48:23;;;;;;;0.30;0.30;;;;;;;9.73;48.89;99057.94;5077067;28;20123;-61
2023/04/04 00:50:52;;;;;;;0.20;0.20;;;;;;;9.80;48.67;99055.22;5093603;28;20031;-62
2023/04/04 00:53:17;;;;;;;0.20;0.20;;;;;;;9.81;48.77;99054.06;5076373;28;20056;-64
2023/04/04 00:55:47;;;;;;;0.20;0.20;;;;;;;9.74;49.39;99054.78;5076857;28;20052;-63
2023/04/04 00:58:16;;;;;;;0.20;0.20;;;;;;;9.82;49.30;99062.00;5076456;28;20024;-63
2023/04/04 01:00:42;;;;;;;0.20;0.20;;;;;;;9.73;49.03;99069.84;5076511;28;20081;-64
2023/04/04 01:03:11;;;;;;;0.20;0.20;;;;;;;9.71;49.69;99070.25;5076501;28;20028;-65
2023/04/04 01:05:37;;;;;;;0.20;0.20;;;;;;;9.76;49.21;99074.66;5094706;28;20106;-64
2023/04/04 01:08:06;;;;;;;0.20;0.20;;;;;;;9.67;49.19;99076.97;5076217;28;20056;-64
2023/04/04 01:10:32;;;;;;;0.20;0.20;;;;;;;9.76;49.91;99074.66;5076344;28;20039;-65
2023/04/04 01:12:58;;;;;;;0.28;0.28;;;;;;;9.69;49.53;99061.53;5075872;28;20123;-63
2023/04/04 01:15:26;;;;;;;0.20;0.20;;;;;;;9.69;49.19;99067.06;5076272;28;20066;-63
2023/04/04 01:17:56;;;;;;;0.20;0.20;;;;;;;9.64;49.27;99066.59;5076470;28;20382;-64
2023/04/04 01:20:25;;;;;;;0.20;0.20;;;;;;;9.65;49.23;99060.69;5076299;28;20024;-65
2023/04/04 01:22:55;;;;;;;0.20;0.20;;;;;;;9.60;49.44;99051.91;5076366;28;20398;-65
2023/04/04 01:25:31;;;;;;;0.20;0.20;;;;;;;9.65;49.43;99049.56;5076180;28;20032;-63
2023/04/04 01:27:58;;;;;;;0.20;0.20;;;;;;;9.60;49.93;99063.00;5076433;28;20378;-64
2023/04/04 01:30:30;;;;;;;0.20;0.20;;;;;;;9.65;49.02;99062.66;5094838;28;20084;-65
2023/04/04 01:33:05;;;;;;;0.27;0.27;;;;;;;9.65;49.55;99080.13;5077845;28;20115;-64
2023/04/04 01:35:39;;;;;;;0.20;0.20;;;;;;;9.72;48.96;99073.81;5098877;28;20115;-68
2023/04/04 01:38:26;;;;;;;0.30;0.30;;;;;;;9.68;48.38;99067.44;5098616;28;20107;-65
2023/04/04 01:41:00;;;;;;;0.20;0.20;;;;;;;9.66;49.09;99069.81;5081416;28;20036;-66
2023/04/04 01:43:26;;;;;;;0.20;0.20;;;;;;;9.70;48.69;99065.09;5080609;28;20027;-64
2023/04/04 01:45:54;;;;;;;0.20;0.20;;;;;;;9.64;49.16;99077.72;5076630;28;20036;-63
2023/04/04 01:48:19;;;;;;;0.20;0.20;;;;;;;9.58;48.49;99074.47;5075876;28;20111;-63
2023/04/04 01:50:48;;;;;;;0.20;0.20;;;;;;;9.60;49.07;99063.81;5075920;28;20063;-64
2023/04/04 01:53:13;;;;;;;0.25;0.25;;;;;;;9.61;49.19;99072.94;5092877;28;20050;-63
2023/04/04 01:55:42;;;;;;;0.20;0.20;;;;;;;9.59;49.06;99070.56;5075953;28;20032;-64
2023/04/04 01:58:08;;;;;;;0.20;0.20;;;;;;;9.60;48.53;99072.13;5093823;28;20111;-64
2023/04/04 02:00:36;;;;;;;0.20;0.20;;;;;;;9.62;48.69;99074.53;5075740;28;20115;-64
2023/04/04 02:03:07;;;;;;;0.20;0.20;;;;;;;9.66;48.91;99080.91;5075914;28;20024;-63
2023/04/04 02:05:34;;;;;;;0.30;0.30;;;;;;;9.60;48.71;99071.34;5076290;28;20078;-66
2023/04/04 02:08:02;;;;;;;0.25;0.25;;;;;;;9.56;48.67;99064.97;5075686;28;20052;-63
2023/04/04 02:10:30;;;;;;;0.20;0.20;;;;;;;9.58;48.52;99079.25;5075668;28;20024;-63
2023/04/04 02:12:56;;;;;;;0.20;0.20;;;;;;;9.59;48.48;99078.09;5075656;28;20032;-66
2023/04/04 02:15:25;;;;;;;0.20;0.20;;;;;;;9.55;48.13;99063.38;5077308;28;20028;-64
2023/04/04 02:17:51;;;;;;;0.20;0.20;;;;;;;9.61;48.56;99075.72;5094264;28;20032;-64
2023/04/04 02:20:22;;;;;;;0.20;0.20;;;;;;;9.29;47.62;99017.13;5075542;28;20036;-64
2023/04/04 02:22:57;;;;;;;0.20;0.20;;;;;;;9.60;47.70;99071.34;5075564;28;20035;-65
2023/04/04 02:25:26;;;;;;;0.20;0.20;;;;;;;9.55;48.13;99063.38;5096845;28;20028;-66
2023/04/04 02:27:59;;;;;;;0.20;0.20;;;;;;;9.60;47.75;99068.56;5079537;28;20062;-64
2023/04/04 02:30:27;;;;;;;0.20;0.20;;;;;;;9.58;47.69;99074.47;5080109;28;20031;-63
2023/04/04 02:32:57;;;;;;;0.30;0.30;;;;;;;9.51;47.99;99068.09;5079734;28;20055;-64
2023/04/04 02:35:25;;;;;;;0.30;0.30;;;;;;;9.51;47.88;99068.09;5079360;28;20028;-64
2023/04/04 02:37:50;;;;;;;0.20;0.20;;;;;;;9.44;48.50;99060.50;5079778;28;20513;-65
2023/04/04 02:40:21;;;;;;;0.30;0.30;;;;;;;9.44;48.30;99066.84;5079277;28;20028;-65
2023/04/04 02:42:51;;;;;;;0.20;0.20;;;;;;;9.42;48.45;99063.63;5079829;28;20374;-64
2023/04/04 02:45:19;;;;;;;0.20;0.20;;;;;;;9.44;48.65;99075.16;5079398;28;20039;-63
2023/04/04 02:47:51;;;;;;;0.20;0.20;;;;;;;9.45;48.56;99082.31;5079116;28;20020;-63
2023/04/04 02:50:19;;;;;;;0.20;0.20;;;;;;;9.41;48.98;99077.91;5079119;28;20039;-66
2023/04/04 02:52:47;;;;;;;0.20;0.20;;;;;;;9.40;48.85;99071.56;5079042;28;20024;-65
2023/04/04 02:55:13;;;;;;;0.20;0.20;;;;;;;9.37;49.08;99061.19;5079026;28;20059;-65
2023/04/04 02:57:41;;;;;;;0.20;0.20;;;;;;;9.39;49.11;99071.94;5078824;28;20048;-63
2023/04/04 03:00:10;;;;;;;0.20;0.20;;;;;;;9.31;49.30;99073.84;5079350;28;20031;-64
2023/04/04 03:02:36;;;;;;;0.20;0.20;;;;;;;9.37;49.61;99072.31;5080340;28;20114;-64
2023/04/04 03:05:01;;;;;;;0.20;0.20;;;;;;;9.30;49.21;99075.03;5080360;28;20123;-63
2023/04/04 03:07:27;;;;;;;0.20;0.20;;;;;;;9.34;48.96;99070.31;5078882;28;20381;-64
2023/04/04 03:09:54;;;;;;;0.20;0.20;;;;;;;9.30;49.35;99069.47;5078779;28;20056;-65
2023/04/04 03:12:20;;;;;;;0.20;0.20;;;;;;;9.38;49.10;99076.69;5078729;28;20482;-66
2023/04/04 03:14:48;;;;;;;0.20;0.20;;;;;;;9.35;49.30;99083.00;5078929;28;20039;-63
2023/04/04 03:17:14;;;;;;;0.20;0.20;;;;;;;9.31;49.49;99084.94;5078530;28;20028;-65
2023/04/04 03:19:42;;;;;;;0.20;0.20;;;;;;;9.21;49.66;99076.50;5061970;28;20039;-63
2023/04/04 03:22:07;;;;;;;0.20;0.20;;;;;;;9.19;49.37;99082.44;5095784;28;20035;-66
2023/04/04 03:24:39;;;;;;;0.20;0.20;;;;;;;9.13;49.24;99081.97;5078455;28;20478;-63
2023/04/04 03:27:06;;;;;;;0.20;0.20;;;;;;;9.11;49.87;99083.56;5078570;28;20047;-64
2023/04/04 03:29:32;;;;;;;0.20;0.20;;;;;;;9.13;49.51;99092.28;5078328;28;20035;-65
2023/04/04 03:32:02;;;;;;;0.20;0.20;;;;;;;9.15;49.56;99095.47;5078912;28;20024;-64
2023/04/04 03:34:28;;;;;;;0.20;0.20;;;;;;;9.17;49.40;99098.69;5078347;28;20368;-63
2023/04/04 03:36:54;;;;;;;0.20;0.20;;;;;;;9.12;49.68;99090.69;5078520;28;20025;-65
2023/04/04 03:39:19;;;;;;;0.20;0.20;;;;;;;9.11;49.68;99102.97;5078385;28;20024;-66
2023/04/04 03:41:47;;;;;;;0.30;0.30;;;;;;;9.03;49.54;99090.19;5078485;28;20034;-63
2023/04/04 03:44:16;;;;;;;0.30;0.30;;;;;;;9.13;49.89;99103.38;5078122;28;20035;-64
2023/04/04 03:46:41;;;;;;;0.20;0.20;;;;;;;9.09;49.66;99108.88;5078850;28;20024;-64
2023/04/04 03:49:09;;;;;;;0.20;0.20;;;;;;;9.09;49.14;99102.53;5078363;28;20505;-63
2023/04/04 03:51:35;;;;;;;0.20;0.20;;;;;;;9.14;49.35;99099.44;5078440;28;20383;-64
2023/04/04 03:54:02;;;;;;;0.20;0.20;;;;;;;9.13;49.59;99115.28;5077874;28;20036;-63
2023/04/04 03:56:31;;;;;;;0.20;0.20;;;;;;;9.05;49.47;99104.47;5078379;28;20024;-64
2023/04/04 03:58:57;;;;;;;0.20;0.20;;;;;;;9.09;49.53;99113.63;5078292;28;20029;-62
2023/04/04 04:01:25;;;;;;;0.20;0.20;;;;;;;9.01;48.92;99121.09;5077710;28;20020;-64
2023/04/04 04:03:53;;;;;;;0.20;0.20;;;;;;;9.06;50.13;99117.97;5095116;28;20031;-65
2023/04/04 04:06:21;;;;;;;0.20;0.20;;;;;;;8.98;50.09;99124.63;5077996;28;20028;-64
2023/04/04 04:08:47;;;;;;;0.20;0.20;;;;;;;8.93;49.84;99127.72;5077255;28;20040;-64
2023/04/04 04:11:15;;;;;;;0.20;0.20;;;;;;;8.96;49.50;99126.97;5078133;28;20031;-65
2023/04/04 04:13:43;;;;;;;0.20;0.20;;;;;;;8.93;49.81;99131.28;5077546;28;20042;-65
2023/04/04 04:16:11;;;;;;;0.28;0.28;;;;;;;8.84;50.34;99136.34;5077508;28;20053;-63
2023/04/04 04:18:41;;;;;;;0.20;0.20;;;;;;;8.87;50.47;99146.66;5077844;28;20488;-66
2023/04/04 04:21:07;;;;;;;0.20;0.20;;;;;;;8.82;50.13;99144.22;5095808;28;20030;-65
2023/04/04 04:23:32;;;;;;;0.20;0.20;;;;;;;8.83;50.40;99137.50;5077864;28;20036;-66
2023/04/04 04:25:58;;;;;;;0.20;0.20;;;;;;;8.80;50.29;99146.59;5077587;28;20416;-64
2023/04/04 04:28:26;;;;;;;0.20;0.20;;;;;;;8.80;50.17;99151.34;5077507;28;20503;-64
2023/04/04 04:30:52;;;;;;;0.20;0.20;;;;;;;8.73;50.43;99146.47;5077105;28;20028;-63
2023/04/04 04:33:18;;;;;;;0.20;0.20;;;;;;;8.82;50.37;99155.31;5077428;28;20028;-63
2023/04/04 04:35:43;;;;;;;0.20;0.20;;;;;;;8.65;50.46;99150.34;5077034;28;20031;-65
2023/04/04 04:38:11;;;;;;;0.20;0.20;;;;;;;8.74;50.28;99164.72;5077486;28;20036;-62
2023/04/04 04:40:40;;;;;;;0.30;0.30;;;;;;;8.82;50.50;99160.06;5077278;28;20023;-62
2023/04/04 04:43:07;;;;;;;0.20;0.20;;;;;;;8.71;50.45;99159.13;5094426;28;20060;-65
2023/04/04 04:45:33;;;;;;;0.30;0.30;;;;;;;8.71;50.07;99154.38;5095056;28;20028;-65
2023/04/04 04:47:58;;;;;;;0.20;0.20;;;;;;;8.85;49.95;99151.81;5093949;28;20043;-64
2023/04/04 04:50:29;;;;;;;0.20;0.20;;;;;;;8.84;49.54;99157.72;5078515;28;20546;-62
2023/04/04 04:53:00;;;;;;;0.20;0.20;;;;;;;8.95;49.15;99153.13;5077023;28;20383;-63
2023/04/04 04:55:26;;;;;;;0.20;0.20;;;;;;;8.89;48.92;99165.69;5076721;28;20035;-66
2023/04/04 04:57:57;;;;;;;0.30;0.30;;;;;;;8.95;48.81;99163.41;5076587;28;20028;-64
2023/04/04 05:00:24;;;;;;;0.30;0.30;;;;;;;9.01;48.92;99159.94;5076293;28;20035;-65
2023/04/04 05:02:53;;;;;;;0.20;0.20;;;;;;;8.99;48.97;99167.03;5076533;28;20039;-67
2023/04/04 05:05:20;;;;;;;0.20;0.20;;;;;;;9.65;47.24;99174.56;5076843;28;20447;-62
2023/04/04 05:07:48;;;;;;;0.20;0.20;;;;;;;10.52;45.62;99170.56;5076594;28;20107;-65
2023/04/04 05:10:14;;;;;;;0.20;0.20;;;;;;;11.16;43.98;99168.13;5076059;28;20020;-63
2023/04/04 05:12:44;;;;;;;0.30;0.30;;;;;;;11.75;42.19;99172.28;5076334;28;20035;-65
2023/04/04 05:15:12;;;;;;;0.20;0.20;;;;;;;12.21;40.57;99179.16;5076626;28;20066;-65
2023/04/04 05:17:39;;;;;;;0.20;0.20;;;;;;;12.89;40.31;99179.03;5093383;28;20115;-65
2023/04/04 05:20:08;;;;;;;0.20;0.20;;;;;;;13.41;39.17;99182.88;5098255;28;20027;-64
2023/04/04 05:22:34;;;;;;;0.20;0.20;;;;;;;13.94;38.50;99194.97;5080695;28;20035;-65
2023/04/04 05:25:04;;;;;;;0.20;0.20;;;;;;;14.23;37.04;99181.59;5081569;28;20024;-70
2023/04/04 05:27:34;;;;;;;0.20;0.20;;;;;;;14.56;36.24;99194.13;5081257;28;20451;-70
2023/04/04 05:30:00;;;;;;;0.20;0.20;;;;;;;14.40;35.53;99191.84;5079575;28;20448;-63
2023/04/04 05:32:25;;;;;;;0.20;0.20;;;;;;;13.55;37.41;99207.97;5076269;28;20034;-66
2023/04/04 05:34:51;;;;;;;0.20;0.20;;;;;;;13.49;38.25;99212.41;5076093;28;20020;-65
2023/04/04 05:37:19;;;;;;;0.20;0.20;;;;;;;12.77;39.25;99216.56;5076330;28;20119;-64
2023/04/04 05:39:47;;;;;;;0.20;0.20;;;;;;;12.38;39.43;99217.38;5076275;28;20110;-63
2023/04/04 05:42:18;;;;;;;0.20;0.20;;;;;;;12.42;40.48;99209.81;5094498;28;20106;-66
2023/04/04 05:44:45;;;;;;;0.20;0.20;;;;;;;12.45;39.95;99216.59;5075943;28;20028;-65
2023/04/04 05:47:13;;;;;;;0.20;0.20;;;;;;;12.94;40.40;99207.34;5075527;28;20032;-65
2023/04/04 05:49:42;;;;;;;0.20;0.20;;;;;;;13.07;39.09;99218.91;5075968;28;20085;-64
2023/04/04 05:52:09;;;;;;;0.20;0.20;;;;;;;13.25;38.88;99225.25;5076386;28;20074;-63
2023/04/04 05:54:35;;;;;;;0.20;0.20;;;;;;;13.02;38.98;99222.91;5076374;28;20420;-63
2023/04/04 05:57:02;;;;;;;0.20;0.20;;;;;;;13.31;38.67;99220.84;5076164;28;20039;-65
2023/04/04 05:59:31;;;;;;;0.20;0.20;;;;;;;13.76;37.79;99218.25;5075623;28;20059;-65
2023/04/04 06:01:56;;;;;;;0.30;0.30;;;;;;;14.25;36.67;99226.72;5075991;28;20032;-62
2023/04/04 06:04:22;;;;;;;0.20;0.20;;;;;;;14.59;35.57;99232.47;5076525;28;20036;-64
2023/04/04 06:06:47;;;;;;;0.20;0.20;;;;;;;15.16;34.35;99220.72;5077326;28;20103;-66
2023/04/04 06:09:13;;;;;;;0.20;0.20;;;;;;;15.66;32.99;99229.38;5059773;28;20063;-65
2023/04/04 06:11:42;;;;;;;0.20;0.20;;;;;;;16.34;33.05;99230.41;5052267;28;20032;-64
2023/04/04 06:14:10;;;;;;;0.20;0.20;;;;;;;16.64;31.74;99244.34;5052289;28;20091;-65
2023/04/04 06:16:38;;;;;;;0.20;0.20;;;;;;;16.78;31.12;99237.75;5052771;28;20029;-64
2023/04/04 06:19:04;;;;;;;0.20;0.20;;;;;;;16.81;31.40;99244.50;5052116;28;20479;-65
2023/04/04 06:21:32;;;;;;;0.20;0.20;;;;;;;17.39;30.50;99242.22;5052193;28;20033;-63
2023/04/04 06:24:00;;;;;;;0.20;0.20;;;;;;;17.34;30.12;99245.53;5052119;28;20064;-64
2023/04/04 06:26:29;;;;;;;0.20;0.20;;;;;;;17.11;30.65;99246.38;5052373;28;20032;-66
2023/04/04 06:28:57;;;;;;;0.20;0.20;;;;;;;17.48;30.07;99256.53;5052269;28;20470;-65
2023/04/04 06:31:26;;;;;;;0.20;0.20;;;;;;;17.60;29.19;99244.63;5051994;28;20025;-66
2023/04/04 06:33:51;;;;;;;0.20;0.20;;;;;;;17.63;29.42;99251.38;5051847;28;20025;-64
2023/04/04 06:36:17;;;;;;;0.20;0.20;;;;;;;17.92;29.18;99258.03;5051822;28;20075;-64
2023/04/04 06:38:45;;;;;;;0.20;0.20;;;;;;;18.03;29.20;99252.16;5051705;28;20025;-64
2023/04/04 06:41:11;;;;;;;0.20;0.20;;;;;;;18.28;28.61;99255.22;5051663;28;20025;-66
2023/04/04 06:43:39;;;;;;;0.20;0.20;;;;;;;18.14;28.66;99255.53;5051787;28;20033;-66
2023/04/04 06:46:11;;;;;;;0.20;0.20;;;;;;;18.64;28.29;99262.78;5052303;28;20063;-65
2023/04/04 06:48:36;;;;;;;0.20;0.20;;;;;;;17.72;27.94;99252.41;5053033;28;20029;-67
2023/04/04 06:51:07;;;;;;;0.20;0.20;;;;;;;18.13;28.36;99233.47;5051671;28;20125;-64
2023/04/04 06:53:33;;;;;;;0.20;0.20;;;;;;;17.84;28.54;99261.41;5052021;28;20025;-67
2023/04/04 06:56:02;;;;;;;0.20;0.20;;;;;;;17.22;28.70;99264.63;5051717;28;20468;-65
2023/04/04 06:58:29;;;;;;;0.20;0.20;;;;;;;17.93;28.23;99264.44;5053190;28;20480;-67
2023/04/04 07:00:58;;;;;;;0.20;0.20;;;;;;;17.59;28.05;99265.53;5053537;28;20052;-63
2023/04/04 07:03:26;;;;;;;0.20;0.20;;;;;;;18.10;27.64;99274.53;5051724;28;20033;-67
2023/04/04 07:05:57;;;;;;;0.20;0.20;;;;;;;17.58;28.90;99280.81;5051757;28;20079;-67
2023/04/04 07:08:25;;;;;;;0.20;0.20;;;;;;;18.53;27.76;99281.97;5051839;28;20072;-63
2023/04/04 07:10:51;;;;;;;0.20;0.20;;;;;;;18.66;27.57;99282.88;5053468;28;20112;-64
2023/04/04 07:13:19;;;;;;;0.20;0.20;;;;;;;19.18;27.20;99275.59;5055180;28;20457;-64
2023/04/04 07:15:48;;;;;;;0.20;0.20;;;;;;;19.51;27.22;99284.75;5055091;28;20115;-64
2023/04/04 07:18:16;;;;;;;0.20;0.20;;;;;;;19.34;26.46;99287.63;5054881;28;20029;-65
2023/04/04 07:20:45;;;;;;;0.10;0.10;;;;;;;19.82;26.37;99283.06;5055206;28;20036;-68
2023/04/04 07:23:11;;;;;;;0.20;0.20;;;;;;;19.67;26.22;99284.72;5055366;28;20111;-67
2023/04/04 07:25:37;;;;;;;0.20;0.20;;;;;;;19.16;26.53;99290.09;5055112;28;20462;-66
2023/04/04 07:28:05;;;;;;;0.20;0.20;;;;;;;18.44;26.89;99268.53;5055904;28;20464;-63
2023/04/04 07:30:33;;;;;;;0.20;0.20;;;;;;;18.33;27.22;99282.84;5055092;28;20028;-64
2023/04/04 07:33:03;;;;;;;0.20;0.20;;;;;;;17.21;28.80;99282.72;5054945;28;20024;-65
2023/04/04 07:35:28;;;;;;;0.20;0.20;;;;;;;18.16;27.87;99283.25;5054914;28;20073;-64
2023/04/04 07:37:54;;;;;;;0.20;0.20;;;;;;;17.71;27.84;99289.41;5054639;28;20063;-66
2023/04/04 07:40:22;;;;;;;0.20;0.20;;;;;;;18.76;27.24;99286.72;5055536;28;20179;-62
2023/04/04 07:42:53;;;;;;;0.20;0.20;;;;;;;17.64;27.47;99293.16;5055046;28;20098;-62
2023/04/04 07:45:18;;;;;;;0.20;0.20;;;;;;;17.08;28.46;99295.00;5054371;28;20123;-65
2023/04/04 07:47:45;;;;;;;0.20;0.20;;;;;;;16.77;29.65;99297.94;5055884;28;20128;-66
2023/04/04 07:50:11;;;;;;;0.20;0.20;;;;;;;17.47;28.55;99308.34;5054620;28;20032;-66
2023/04/04 07:52:39;;;;;;;0.20;0.20;;;;;;;18.02;28.23;99309.69;5054990;28;20103;-65
2023/04/04 07:55:06;;;;;;;0.20;0.20;;;;;;;18.22;28.57;99310.47;5054640;28;20032;-64
2023/04/04 07:57:32;;;;;;;0.20;0.20;;;;;;;18.63;27.73;99280.16;5054701;28;20017;-65
2023/04/04 08:00:01;;;;;;;0.20;0.20;;;;;;;19.07;27.23;99310.47;5056321;28;20029;-65
2023/04/04 08:02:26;;;;;;;0.20;0.20;;;;;;;19.88;26.42;99315.16;5054561;28;20032;-63
2023/04/04 08:04:54;;;;;;;0.20;0.20;;;;;;;20.46;25.09;99313.47;5054282;28;20523;-66
2023/04/04 08:07:20;;;;;;;0.20;0.20;;;;;;;20.64;25.10;99302.41;5053968;28;20025;-64
2023/04/04 08:09:45;;;;;;;0.20;0.20;;;;;;;20.06;25.47;99325.13;5053698;28;20060;-65
2023/04/04 08:12:11;;;;;;;0.10;0.10;;;;;;;19.53;25.71;99331.00;5054272;28;20408;-65
2023/04/04 08:14:36;;;;;;;0.20;0.20;;;;;;;18.97;25.81;99322.03;5054356;28;20456;-66
2023/04/04 08:17:02;;;;;;;0.20;0.20;;;;;;;18.50;27.10;99320.28;5054149;28;20044;-62
2023/04/04 08:19:30;;;;;;;0.20;0.20;;;;;;;18.60;26.88;99332.53;5055344;28;20029;-62
2023/04/04 08:21:56;;;;;;;0.20;0.20;;;;;;;17.54;28.44;99325.88;5054965;28;20088;-62
2023/04/04 08:24:23;;;;;;;0.20;0.20;;;;;;;17.86;28.12;99327.31;5054215;28;20154;-65
2023/04/04 08:26:51;;;;;;;0.20;0.20;;;;;;;19.09;27.48;99344.66;5054180;28;20025;-63
2023/04/04 08:29:16;;;;;;;0.20;0.20;;;;;;;19.61;26.32;99345.75;5055247;28;20036;-66
2023/04/04 08:31:47;;;;;;;0.20;0.20;;;;;;;20.75;24.81;99333.94;5053836;28;20025;-66
2023/04/04 08:34:12;;;;;;;0.20;0.20;;;;;;;18.70;26.68;99339.19;5054023;28;20451;-62
2023/04/04 08:36:40;;;;;;;0.20;0.20;;;;;;;17.37;28.08;99332.66;5054038;28;20083;-62
2023/04/04 08:39:08;;;;;;;0.20;0.20;;;;;;;17.66;28.06;99335.69;5053900;28;20024;-64
2023/04/04 08:41:34;;;;;;;0.20;0.20;;;;;;;17.17;28.79;99338.22;5053889;28;20021;-66
2023/04/04 08:44:05;;;;;;;0.20;0.20;;;;;;;17.87;27.73;99344.97;5054719;28;20091;-66
2023/04/04 08:46:36;;;;;;;0.20;0.20;;;;;;;17.41;28.00;99341.00;5053527;28;20033;-66
2023/04/04 08:49:05;;;;;;;0.20;0.20;;;;;;;16.03;28.99;99348.28;5053477;28;20024;-65
2023/04/04 08:51:34;;;;;;;0.20;0.20;;;;;;;16.08;28.62;99347.81;5053459;28;20032;-64
2023/04/04 08:54:02;;;;;;;0.20;0.20;;;;;;;15.60;29.69;99367.59;5055228;28;20021;-64
2023/04/04 08:56:28;;;;;;;0.20;0.20;;;;;;;15.13;30.86;99359.66;5054690;28;20033;-63
2023/04/04 08:58:58;;;;;;;0.20;0.20;;;;;;;14.54;31.45;99354.09;5056558;28;20021;-67
2023/04/04 09:01:28;;;;;;;0.20;0.20;;;;;;;15.29;31.40;99353.50;5055842;28;20028;-69
2023/04/04 09:03:57;;;;;;;0.20;0.20;;;;;;;16.97;28.99;99357.81;5057519;28;20036;-64
2023/04/04 09:06:26;;;;;;;0.20;0.20;;;;;;;18.36;27.22;99359.22;5057594;28;20029;-63
2023/04/04 09:08:56;;;;;;;0.20;0.20;;;;;;;17.77;26.95;99355.22;5078026;28;20048;-63
2023/04/04 09:11:23;;;;;;;0.20;0.20;;;;;;;18.29;26.65;99365.81;5094803;28;20028;-67
2023/04/04 09:13:53;;;;;;;0.20;0.20;;;;;;;17.44;27.47;99374.69;5078426;28;20020;-65
2023/04/04 09:16:19;;;;;;;0.20;0.20;;;;;;;17.98;27.32;99373.69;5076849;28;20531;-62
2023/04/04 09:18:44;;;;;;;0.20;0.20;;;;;;;17.87;26.18;99368.28;5076903;28;20024;-66
2023/04/04 09:21:11;;;;;;;0.20;0.20;;;;;;;17.04;27.51;99373.75;5076703;28;20032;-63
2023/04/04 09:23:44;;;;;;;0.20;0.20;;;;;;;17.26;28.23;99385.47;5093680;28;20032;-64
2023/04/04 09:26:12;;;;;;;0.20;0.20;;;;;;;17.16;29.20;99387.22;5076176;28;20031;-66
2023/04/04 09:28:38;;;;;;;0.20;0.20;;;;;;;17.12;29.06;99386.47;5076081;28;20077;-64
2023/04/04 09:31:08;;;;;;;0.20;0.20;;;;;;;17.88;28.64;99385.97;5076609;28;20109;-66
2023/04/04 09:33:36;;;;;;;0.20;0.20;;;;;;;18.19;28.21;99376.06;5075254;28;20497;-66
2023/04/04 09:36:08;;;;;;;0.20;0.20;;;;;;;17.40;29.02;99396.44;5076308;28;20076;-65
2023/04/04 09:38:39;;;;;;;0.20;0.20;;;;;;;16.35;30.82;99381.59;5076516;28;20367;-66
2023/04/04 09:41:13;;;;;;;0.20;0.20;;;;;;;16.78;30.98;99389.44;5093240;28;20024;-66
2023/04/04 09:43:44;;;;;;;0.20;0.20;;;;;;;16.97;31.06;99391.53;5077926;28;20486;-66
2023/04/04 09:46:12;;;;;;;0.20;0.20;;;;;;;17.05;30.58;99399.88;5077110;28;20024;-63
2023/04/04 09:48:40;;;;;;;0.20;0.20;;;;;;;16.86;31.03;99396.53;5092706;28;20093;-65
2023/04/04 09:51:11;;;;;;;0.20;0.20;;;;;;;16.85;31.42;99411.00;5093763;28;20028;-66
2023/04/04 09:53:40;;;;;;;0.20;0.20;;;;;;;16.64;31.53;99415.66;5075960;28;20031;-65
2023/04/04 09:56:08;;;;;;;0.20;0.20;;;;;;;16.39;31.42;99412.41;5094482;28;20024;-64
2023/04/04 09:58:35;;;;;;;0.20;0.20;;;;;;;16.35;31.88;99418.06;5092719;28;20085;-62
2023/04/04 10:01:08;;;;;;;0.20;0.20;;;;;;;16.44;32.22;99417.53;5075721;28;20058;-67
2023/04/04 10:03:39;;;;;;;0.20;0.20;;;;;;;16.51;32.58;99420.25;5075497;28;20086;-66
2023/04/04 10:06:09;;;;;;;0.20;0.20;;;;;;;16.21;33.19;99427.47;5093592;28;20020;-64
2023/04/04 10:08:38;;;;;;;0.20;0.20;;;;;;;16.26;32.70;99425.41;5081883;28;20061;-65
2023/04/04 10:11:07;;;;;;;0.20;0.20;;;;;;;15.94;32.88;99432.19;5052268;28;20029;-63
2023/04/04 10:13:43;;;;;;;0.20;0.20;;;;;;;15.56;33.08;99423.72;5052240;28;20025;-65
2023/04/04 10:16:09;;;;;;;0.20;0.20;;;;;;;15.87;33.01;99426.63;5052262;28;20025;-65
2023/04/04 10:18:38;;;;;;;0.20;0.20;;;;;;;15.90;33.01;99431.44;5052481;28;20040;-63
2023/04/04 10:21:07;;;;;;;0.20;0.20;;;;;;;16.08;32.51;99432.00;5053238;28;20025;-67
2023/04/04 10:23:37;;;;;;;0.20;0.20;;;;;;;16.30;32.81;99426.16;5052721;28;20178;-65
2023/04/04 10:26:03;;;;;;;0.20;0.20;;;;;;;16.28;32.22;99437.00;5053367;28;20372;-64
2023/04/04 10:28:28;;;;;;;0.20;0.20;;;;;;;16.31;32.27;99439.00;5053521;28;20115;-64
2023/04/04 10:31:20;;;;;;;0.20;0.20;;;;;;;16.12;32.66;99441.19;5052111;28;20502;-66
2023/04/04 10:33:54;;;;;;;0.20;0.20;;;;;;;15.99;32.87;99445.75;5052687;28;20029;-67
2023/04/04 10:36:26;;;;;;;0.20;0.20;;;;;;;15.59;32.86;99445.31;5052034;28;20025;-66
2023/04/04 10:39:14;;;;;;;0.20;0.20;;;;;;;15.49;32.96;99448.22;5051942;28;20467;-65
2023/04/04 10:41:44;;;;;;;0.20;0.20;;;;;;;15.68;32.88;99448.47;5052351;28;20028;-66
2023/04/04 10:44:36;;;;;;;0.20;0.20;;;;;;;15.92;32.52;99455.03;5052605;28;20387;-64
2023/04/04 10:47:13;;;;;;;0.20;0.20;;;;;;;15.62;32.99;99438.88;5056852;28;20046;-64
2023/04/04 10:49:43;;;;;;;0.20;0.20;;;;;;;15.83;32.77;99448.34;5056102;28;20468;-63
2023/04/04 10:52:15;;;;;;;0.20;0.20;;;;;;;15.93;32.62;99453.84;5055782;28;20025;-63
2023/04/04 10:54:42;;;;;;;0.20;0.20;;;;;;;15.70;32.33;99456.47;5056284;28;20132;-66
2023/04/04 10:57:12;;;;;;;0.20;0.20;;;;;;;15.63;32.48;99451.72;5055901;28;20029;-65
2023/04/04 10:59:57;;;;;;;0.20;0.20;;;;;;;15.57;33.02;99453.34;5055527;28;20029;-65
2023/04/04 11:02:58;;;;;;;0.20;0.20;;;;;;;15.99;32.15;99448.56;5056143;28;20032;-63
2023/04/04 11:05:45;;;;;;;0.20;0.20;;;;;;;16.21;32.29;99458.34;5055569;28;20029;-66
2023/04/04 11:08:15;;;;;;;0.20;0.20;;;;;;;16.91;31.39;99454.25;5059670;28;20049;-67
2023/04/04 11:10:50;;;;;;;0.20;0.20;;;;;;;17.30;30.38;99448.03;5075643;28;20032;-66
2023/04/04 11:13:27;;;;;;;0.20;0.20;;;;;;;17.53;29.99;99434.00;5075454;28;20174;-65
2023/04/04 11:15:59;;;;;;;0.20;0.20;;;;;;;17.85;29.52;99457.97;5075051;28;20040;-63
2023/04/04 11:18:31;;;;;;;0.20;0.20;;;;;;;17.78;29.22;99460.91;5075083;28;20111;-64
2023/04/04 11:21:07;;;;;;;0.20;0.20;;;;;;;17.62;29.06;99461.53;5075815;28;20487;-64
2023/04/04 11:23:47;;;;;;;0.20;0.20;;;;;;;18.01;29.54;99458.06;5075178;28;20490;-63
2023/04/04 11:26:17;;;;;;;0.20;0.20;;;;;;;17.93;29.47;99467.06;5075587;28;20021;-63
2023/04/04 11:28:45;;;;;;;0.20;0.20;;;;;;;17.75;29.40;99467.41;5076197;28;20032;-63
2023/04/04 11:31:22;;;;;;;0.20;0.20;;;;;;;17.17;30.04;99469.53;5075585;28;20040;-66
2023/04/04 11:33:57;;;;;;;0.20;0.20;;;;;;;17.32;29.89;99462.47;5075018;28;20032;-64
2023/04/04 11:36:43;;;;;;;0.20;0.20;;;;;;;17.37;30.10;99464.00;5075567;28;20044;-65
2023/04/04 11:39:14;;;;;;;0.20;0.20;;;;;;;17.10;30.08;99442.34;5060891;28;20036;-63
2023/04/04 11:41:52;;;;;;;0.20;0.20;;;;;;;17.09;30.14;99471.63;5074858;28;20020;-66
2023/04/04 11:44:23;;;;;;;0.20;0.20;;;;;;;17.01;30.36;99470.16;5075380;28;20024;-66